sensor_id;sensor_type;location;lat;lon;timestamp;temperature;humidity
38622;DHT22;24380;51.132;5.360;2023-03-23T00:01:16;12.60;99.90
38622;DHT22;24380;51.132;5.360;2023-03-23T00:03:49;12.60;99.90
38622;DHT22;24380;51.132;5.360;2023-03-23T00:06:18;12.60;99.90
38622;DHT22;24380;51.132;5.360;2023-03-23T00:08:48;12.60;99.90
38622;DHT22;24380;51.132;5.360;2023-03-23T00:11:20;12.60;99.90
38622;DHT22;24380;51.132;5.360;2023-03-23T00:13:50;12.60;99.90
38622;DHT22;24380;51.132;5.360;2023-03-23T00:16:19;12.60;99.90
38622;DHT22;24380;51.132;5.360;2023-03-23T00:18:50;12.60;99.90
38622;DHT22;24380;51.132;5.360;2023-03-23T00:21:19;12.60;99.90
38622;DHT22;24380;51.132;5.360;2023-03-23T00:23:49;12.60;99.90
38622;DHT22;24380;51.132;5.360;2023-03-23T00:26:16;12.70;99.90
38622;DHT22;24380;51.132;5.360;2023-03-23T00:28:45;12.70;99.90
38622;DHT22;24380;51.132;5.360;2023-03-23T00:31:13;12.70;99.90
38622;DHT22;24380;51.132;5.360;2023-03-23T00:33:41;12.60;99.90
38622;DHT22;24380;51.132;5.360;2023-03-23T00:36:11;12.60;99.90
38622;DHT22;24380;51.132;5.360;2023-03-23T00:38:40;12.70;99.90
38622;DHT22;24380;51.132;5.360;2023-03-23T00:41:10;12.60;99.90
38622;DHT22;24380;51.132;5.360;2023-03-23T00:43:38;12.70;99.90
38622;DHT22;24380;51.132;5.360;2023-03-23T00:46:06;12.60;99.90
38622;DHT22;24380;51.132;5.360;2023-03-23T00:48:37;12.60;99.90
38622;DHT22;24380;51.132;5.360;2023-03-23T00:51:09;12.70;99.90
38622;DHT22;24380;51.132;5.360;2023-03-23T00:53:40;12.70;99.90
38622;DHT22;24380;51.132;5.360;2023-03-23T00:56:08;12.60;99.90
38622;DHT22;24380;51.132;5.360;2023-03-23T00:58:36;12.70;99.90
38622;DHT22;24380;51.132;5.360;2023-03-23T01:01:04;12.60;99.90
38622;DHT22;24380;51.132;5.360;2023-03-23T01:03:32;12.70;99.90
38622;DHT22;24380;51.132;5.360;2023-03-23T01:06:09;12.60;99.90
38622;DHT22;24380;51.132;5.360;2023-03-23T01:08:41;12.60;99.90
38622;DHT22;24380;51.132;5.360;2023-03-23T01:11:16;12.60;99.90
38622;DHT22;24380;51.132;5.360;2023-03-23T01:13:41;12.60;99.90
38622;DHT22;24380;51.132;5.360;2023-03-23T01:16:09;12.60;99.90
38622;DHT22;24380;51.132;5.360;2023-03-23T01:18:38;12.60;99.90
38622;DHT22;24380;51.132;5.360;2023-03-23T01:21:15;12.60;99.90
38622;DHT22;24380;51.132;5.360;2023-03-23T01:23:43;12.60;99.90
38622;DHT22;24380;51.132;5.360;2023-03-23T01:26:17;12.60;99.90
38622;DHT22;24380;51.132;5.360;2023-03-23T01:28:45;12.60;99.90
38622;DHT22;24380;51.132;5.360;2023-03-23T01:31:19;12.60;99.90
38622;DHT22;24380;51.132;5.360;2023-03-23T01:33:47;12.60;99.90
38622;DHT22;24380;51.132;5.360;2023-03-23T01:36:21;12.60;99.90
38622;DHT22;24380;51.132;5.360;2023-03-23T01:38:49;12.60;99.90
38622;DHT22;24380;51.132;5.360;2023-03-23T01:41:19;12.70;99.90
38622;DHT22;24380;51.132;5.360;2023-03-23T01:46:30;12.70;99.90
38622;DHT22;24380;51.132;5.360;2023-03-23T01:49:01;12.70;99.90
38622;DHT22;24380;51.132;5.360;2023-03-23T01:51:29;12.70;99.90
38622;DHT22;24380;51.132;5.360;2023-03-23T01:53:59;12.60;99.90
38622;DHT22;24380;51.132;5.360;2023-03-23T01:56:32;12.60;99.90
38622;DHT22;24380;51.132;5.360;2023-03-23T01:58:58;12.60;99.90
38622;DHT22;24380;51.132;5.360;2023-03-23T02:01:26;12.60;99.90
38622;DHT22;24380;51.132;5.360;2023-03-23T02:03:56;12.70;99.90
38622;DHT22;24380;51.132;5.360;2023-03-23T02:06:24;12.70;99.90
38622;DHT22;24380;51.132;5.360;2023-03-23T02:08:52;12.70;99.90
38622;DHT22;24380;51.132;5.360;2023-03-23T02:11:21;12.70;99.90
38622;DHT22;24380;51.132;5.360;2023-03-23T02:13:50;12.60;99.90
38622;DHT22;24380;51.132;5.360;2023-03-23T02:19:22;12.60;99.90
38622;DHT22;24380;51.132;5.360;2023-03-23T02:28:27;12.70;99.90
38622;DHT22;24380;51.132;5.360;2023-03-23T02:34:07;12.60;99.90
38622;DHT22;24380;51.132;5.360;2023-03-23T02:36:39;12.60;99.90
38622;DHT22;24380;51.132;5.360;2023-03-23T02:39:30;12.60;99.90
38622;DHT22;24380;51.132;5.360;2023-03-23T02:41:47;12.50;99.90
38622;DHT22;24380;51.132;5.360;2023-03-23T02:44:14;12.50;99.90
38622;DHT22;24380;51.132;5.360;2023-03-23T02:46:43;12.60;99.90
38622;DHT22;24380;51.132;5.360;2023-03-23T02:49:13;12.60;99.90
38622;DHT22;24380;51.132;5.360;2023-03-23T02:51:44;12.50;99.90
38622;DHT22;24380;51.132;5.360;2023-03-23T02:54:12;12.50;99.90
38622;DHT22;24380;51.132;5.360;2023-03-23T02:56:41;12.60;99.90
38622;DHT22;24380;51.132;5.360;2023-03-23T02:59:09;12.60;99.90
38622;DHT22;24380;51.132;5.360;2023-03-23T03:04:13;12.70;99.90
38622;DHT22;24380;51.132;5.360;2023-03-23T03:09:33;12.80;99.90
38622;DHT22;24380;51.132;5.360;2023-03-23T03:12:05;12.80;99.90
38622;DHT22;24380;51.132;5.360;2023-03-23T03:17:20;12.70;99.90
38622;DHT22;24380;51.132;5.360;2023-03-23T03:19:50;12.70;99.90
38622;DHT22;24380;51.132;5.360;2023-03-23T03:22:20;12.80;99.90
38622;DHT22;24380;51.132;5.360;2023-03-23T03:24:49;12.70;99.90
38622;DHT22;24380;51.132;5.360;2023-03-23T03:27:19;12.80;99.90
38622;DHT22;24380;51.132;5.360;2023-03-23T03:29:54;12.80;99.90
38622;DHT22;24380;51.132;5.360;2023-03-23T03:32:27;12.80;99.90
38622;DHT22;24380;51.132;5.360;2023-03-23T03:34:54;12.80;99.90
38622;DHT22;24380;51.132;5.360;2023-03-23T03:37:21;12.80;99.90
38622;DHT22;24380;51.132;5.360;2023-03-23T03:39:49;12.70;99.90
38622;DHT22;24380;51.132;5.360;2023-03-23T03:42:17;12.70;99.90
38622;DHT22;24380;51.132;5.360;2023-03-23T03:44:45;12.80;99.90
38622;DHT22;24380;51.132;5.360;2023-03-23T03:47:12;12.70;99.90
38622;DHT22;24380;51.132;5.360;2023-03-23T03:49:40;12.70;99.90
38622;DHT22;24380;51.132;5.360;2023-03-23T03:52:07;12.80;99.90
38622;DHT22;24380;51.132;5.360;2023-03-23T03:54:36;12.80;99.90
38622;DHT22;24380;51.132;5.360;2023-03-23T03:57:03;12.70;99.90
38622;DHT22;24380;51.132;5.360;2023-03-23T03:59:31;12.80;99.90
38622;DHT22;24380;51.132;5.360;2023-03-23T04:01:59;12.70;99.90
38622;DHT22;24380;51.132;5.360;2023-03-23T04:04:26;12.70;99.90
38622;DHT22;24380;51.132;5.360;2023-03-23T04:06:54;12.70;99.90
38622;DHT22;24380;51.132;5.360;2023-03-23T04:09:23;12.70;99.90
38622;DHT22;24380;51.132;5.360;2023-03-23T04:11:53;12.70;99.90
38622;DHT22;24380;51.132;5.360;2023-03-23T04:14:20;12.70;99.90
38622;DHT22;24380;51.132;5.360;2023-03-23T04:16:48;12.70;99.90
38622;DHT22;24380;51.132;5.360;2023-03-23T04:19:17;12.70;99.90
38622;DHT22;24380;51.132;5.360;2023-03-23T04:21:45;12.70;99.90
38622;DHT22;24380;51.132;5.360;2023-03-23T04:24:14;12.70;99.90
38622;DHT22;24380;51.132;5.360;2023-03-23T04:26:42;12.70;99.90
38622;DHT22;24380;51.132;5.360;2023-03-23T04:29:11;12.70;99.90
38622;DHT22;24380;51.132;5.360;2023-03-23T04:31:39;12.70;99.90
38622;DHT22;24380;51.132;5.360;2023-03-23T04:34:07;12.70;99.90
38622;DHT22;24380;51.132;5.360;2023-03-23T04:36:34;12.70;99.90
38622;DHT22;24380;51.132;5.360;2023-03-23T04:39:02;12.70;99.90
38622;DHT22;24380;51.132;5.360;2023-03-23T04:41:29;12.70;99.90
38622;DHT22;24380;51.132;5.360;2023-03-23T04:43:57;12.60;99.90
38622;DHT22;24380;51.132;5.360;2023-03-23T04:46:26;12.60;99.90
38622;DHT22;24380;51.132;5.360;2023-03-23T04:48:55;12.50;99.90
38622;DHT22;24380;51.132;5.360;2023-03-23T04:51:25;12.60;99.90
38622;DHT22;24380;51.132;5.360;2023-03-23T04:53:54;12.70;99.90
38622;DHT22;24380;51.132;5.360;2023-03-23T04:56:22;12.60;99.90
38622;DHT22;24380;51.132;5.360;2023-03-23T04:58:50;12.60;99.90
38622;DHT22;24380;51.132;5.360;2023-03-23T05:01:17;12.60;99.90
38622;DHT22;24380;51.132;5.360;2023-03-23T05:03:45;12.60;99.90
38622;DHT22;24380;51.132;5.360;2023-03-23T05:06:13;12.70;99.90
38622;DHT22;24380;51.132;5.360;2023-03-23T05:08:40;12.60;99.90
38622;DHT22;24380;51.132;5.360;2023-03-23T05:11:08;12.60;99.90
38622;DHT22;24380;51.132;5.360;2023-03-23T05:13:35;12.70;99.90
38622;DHT22;24380;51.132;5.360;2023-03-23T05:16:04;12.70;99.90
38622;DHT22;24380;51.132;5.360;2023-03-23T05:18:32;12.60;99.90
38622;DHT22;24380;51.132;5.360;2023-03-23T05:21:01;12.60;99.90
38622;DHT22;24380;51.132;5.360;2023-03-23T05:23:29;12.60;99.90
38622;DHT22;24380;51.132;5.360;2023-03-23T05:25:59;12.50;99.90
38622;DHT22;24380;51.132;5.360;2023-03-23T05:28:28;12.50;99.90
38622;DHT22;24380;51.132;5.360;2023-03-23T05:30:57;12.50;99.90
38622;DHT22;24380;51.132;5.360;2023-03-23T05:33:24;12.50;99.90
38622;DHT22;24380;51.132;5.360;2023-03-23T05:35:53;12.50;99.90
38622;DHT22;24380;51.132;5.360;2023-03-23T05:38:20;12.40;99.90
38622;DHT22;24380;51.132;5.360;2023-03-23T05:40:48;12.40;99.90
38622;DHT22;24380;51.132;5.360;2023-03-23T05:43:16;12.50;99.90
38622;DHT22;24380;51.132;5.360;2023-03-23T05:45:44;12.50;99.90
38622;DHT22;24380;51.132;5.360;2023-03-23T05:48:12;12.50;99.90
38622;DHT22;24380;51.132;5.360;2023-03-23T05:50:39;12.50;99.90
38622;DHT22;24380;51.132;5.360;2023-03-23T05:53:07;12.40;99.90
38622;DHT22;24380;51.132;5.360;2023-03-23T05:55:35;12.40;99.90
38622;DHT22;24380;51.132;5.360;2023-03-23T05:58:02;12.40;99.90
38622;DHT22;24380;51.132;5.360;2023-03-23T06:00:30;12.50;99.90
38622;DHT22;24380;51.132;5.360;2023-03-23T06:02:59;12.40;99.90
38622;DHT22;24380;51.132;5.360;2023-03-23T06:05:27;12.50;99.90
38622;DHT22;24380;51.132;5.360;2023-03-23T06:07:55;12.40;99.90
38622;DHT22;24380;51.132;5.360;2023-03-23T06:10:23;12.30;99.90
38622;DHT22;24380;51.132;5.360;2023-03-23T06:12:51;12.40;99.90
38622;DHT22;24380;51.132;5.360;2023-03-23T06:15:19;12.40;99.90
38622;DHT22;24380;51.132;5.360;2023-03-23T06:17:46;12.40;99.90
38622;DHT22;24380;51.132;5.360;2023-03-23T06:20:14;12.40;99.90
38622;DHT22;24380;51.132;5.360;2023-03-23T06:22:41;12.40;99.90
38622;DHT22;24380;51.132;5.360;2023-03-23T06:25:10;12.40;99.90
38622;DHT22;24380;51.132;5.360;2023-03-23T06:27:38;12.40;99.90
38622;DHT22;24380;51.132;5.360;2023-03-23T06:30:06;12.40;99.90
38622;DHT22;24380;51.132;5.360;2023-03-23T06:32:34;12.40;99.90
38622;DHT22;24380;51.132;5.360;2023-03-23T06:35:02;12.40;99.90
38622;DHT22;24380;51.132;5.360;2023-03-23T06:37:30;12.40;99.90
38622;DHT22;24380;51.132;5.360;2023-03-23T06:39:57;12.40;99.90
38622;DHT22;24380;51.132;5.360;2023-03-23T06:42:25;12.50;99.90
38622;DHT22;24380;51.132;5.360;2023-03-23T06:44:52;12.40;99.90
38622;DHT22;24380;51.132;5.360;2023-03-23T06:47:22;12.40;99.90
38622;DHT22;24380;51.132;5.360;2023-03-23T06:49:50;12.40;99.90
38622;DHT22;24380;51.132;5.360;2023-03-23T06:52:17;12.40;99.90
38622;DHT22;24380;51.132;5.360;2023-03-23T06:54:45;12.50;99.90
38622;DHT22;24380;51.132;5.360;2023-03-23T06:57:12;12.40;99.90
38622;DHT22;24380;51.132;5.360;2023-03-23T06:59:40;12.50;99.90
38622;DHT22;24380;51.132;5.360;2023-03-23T07:02:13;12.50;99.90
38622;DHT22;24380;51.132;5.360;2023-03-23T07:04:38;12.50;99.90
38622;DHT22;24380;51.132;5.360;2023-03-23T07:07:07;12.50;99.90
38622;DHT22;24380;51.132;5.360;2023-03-23T07:09:35;12.50;99.90
38622;DHT22;24380;51.132;5.360;2023-03-23T07:12:03;12.60;99.90
38622;DHT22;24380;51.132;5.360;2023-03-23T07:14:30;12.60;99.90
38622;DHT22;24380;51.132;5.360;2023-03-23T07:16:58;12.60;99.90
38622;DHT22;24380;51.132;5.360;2023-03-23T07:19:27;12.60;99.90
38622;DHT22;24380;51.132;5.360;2023-03-23T07:21:54;12.60;99.90
38622;DHT22;24380;51.132;5.360;2023-03-23T07:24:23;12.60;99.90
38622;DHT22;24380;51.132;5.360;2023-03-23T07:26:51;12.60;99.90
38622;DHT22;24380;51.132;5.360;2023-03-23T07:29:19;12.60;99.90
38622;DHT22;24380;51.132;5.360;2023-03-23T07:31:46;12.60;99.90
38622;DHT22;24380;51.132;5.360;2023-03-23T07:34:14;12.60;99.90
38622;DHT22;24380;51.132;5.360;2023-03-23T07:36:41;12.70;99.90
38622;DHT22;24380;51.132;5.360;2023-03-23T07:39:09;12.70;99.90
38622;DHT22;24380;51.132;5.360;2023-03-23T07:41:38;12.70;99.90
38622;DHT22;24380;51.132;5.360;2023-03-23T07:44:06;12.70;99.90
38622;DHT22;24380;51.132;5.360;2023-03-23T07:46:34;12.70;99.90
38622;DHT22;24380;51.132;5.360;2023-03-23T07:49:02;12.80;99.90
38622;DHT22;24380;51.132;5.360;2023-03-23T07:51:32;12.80;99.90
38622;DHT22;24380;51.132;5.360;2023-03-23T07:54:01;12.80;99.90
38622;DHT22;24380;51.132;5.360;2023-03-23T07:56:29;12.80;99.90
38622;DHT22;24380;51.132;5.360;2023-03-23T07:58:57;12.70;99.90
38622;DHT22;24380;51.132;5.360;2023-03-23T08:01:24;12.50;99.90
38622;DHT22;24380;51.132;5.360;2023-03-23T08:03:52;12.30;99.90
38622;DHT22;24380;51.132;5.360;2023-03-23T08:06:21;12.00;99.90
38622;DHT22;24380;51.132;5.360;2023-03-23T08:08:49;11.60;99.90
38622;DHT22;24380;51.132;5.360;2023-03-23T08:11:18;11.40;99.90
38622;DHT22;24380;51.132;5.360;2023-03-23T08:13:48;11.10;99.90
38622;DHT22;24380;51.132;5.360;2023-03-23T08:16:16;11.10;99.90
38622;DHT22;24380;51.132;5.360;2023-03-23T08:18:45;11.00;99.90
38622;DHT22;24380;51.132;5.360;2023-03-23T08:21:13;10.90;99.90
38622;DHT22;24380;51.132;5.360;2023-03-23T08:23:41;10.80;99.90
38622;DHT22;24380;51.132;5.360;2023-03-23T08:26:09;10.50;99.90
38622;DHT22;24380;51.132;5.360;2023-03-23T08:28:37;10.40;99.90
38622;DHT22;24380;51.132;5.360;2023-03-23T08:31:07;10.40;99.90
38622;DHT22;24380;51.132;5.360;2023-03-23T08:33:35;10.30;99.90
38622;DHT22;24380;51.132;5.360;2023-03-23T08:36:03;10.30;99.90
38622;DHT22;24380;51.132;5.360;2023-03-23T08:38:31;10.20;99.90
38622;DHT22;24380;51.132;5.360;2023-03-23T08:41:04;10.20;99.90
38622;DHT22;24380;51.132;5.360;2023-03-23T08:43:34;10.20;99.90
38622;DHT22;24380;51.132;5.360;2023-03-23T08:46:02;10.20;99.90
38622;DHT22;24380;51.132;5.360;2023-03-23T08:48:31;10.20;99.90
38622;DHT22;24380;51.132;5.360;2023-03-23T08:51:00;10.20;99.90
38622;DHT22;24380;51.132;5.360;2023-03-23T08:53:28;10.20;99.90
38622;DHT22;24380;51.132;5.360;2023-03-23T08:56:03;10.30;99.90
38622;DHT22;24380;51.132;5.360;2023-03-23T08:58:31;10.30;99.90
38622;DHT22;24380;51.132;5.360;2023-03-23T09:00:59;10.30;99.90
38622;DHT22;24380;51.132;5.360;2023-03-23T09:03:27;10.30;99.90
38622;DHT22;24380;51.132;5.360;2023-03-23T09:05:59;10.30;99.90
38622;DHT22;24380;51.132;5.360;2023-03-23T09:08:28;10.30;99.90
38622;DHT22;24380;51.132;5.360;2023-03-23T09:11:00;10.40;99.90
38622;DHT22;24380;51.132;5.360;2023-03-23T09:13:29;10.40;99.90
38622;DHT22;24380;51.132;5.360;2023-03-23T09:15:57;10.40;99.90
38622;DHT22;24380;51.132;5.360;2023-03-23T09:18:25;10.50;99.90
38622;DHT22;24380;51.132;5.360;2023-03-23T09:20:53;10.60;99.90
38622;DHT22;24380;51.132;5.360;2023-03-23T09:23:21;10.50;99.90
38622;DHT22;24380;51.132;5.360;2023-03-23T09:25:49;10.50;99.90
38622;DHT22;24380;51.132;5.360;2023-03-23T09:28:18;10.50;99.90
38622;DHT22;24380;51.132;5.360;2023-03-23T09:30:45;10.50;99.90
38622;DHT22;24380;51.132;5.360;2023-03-23T09:33:14;10.60;99.90
38622;DHT22;24380;51.132;5.360;2023-03-23T09:35:42;10.80;99.90
38622;DHT22;24380;51.132;5.360;2023-03-23T09:38:10;11.00;99.90
38622;DHT22;24380;51.132;5.360;2023-03-23T09:48:52;11.30;99.90
38622;DHT22;24380;51.132;5.360;2023-03-23T09:51:45;11.30;99.90
38622;DHT22;24380;51.132;5.360;2023-03-23T09:54:21;11.30;99.90
38622;DHT22;24380;51.132;5.360;2023-03-23T09:56:50;11.20;99.90
38622;DHT22;24380;51.132;5.360;2023-03-23T10:02:02;11.20;99.90
38622;DHT22;24380;51.132;5.360;2023-03-23T10:07:08;11.30;99.90
38622;DHT22;24380;51.132;5.360;2023-03-23T10:09:30;11.40;99.90
38622;DHT22;24380;51.132;5.360;2023-03-23T10:12:21;11.50;99.90
38622;DHT22;24380;51.132;5.360;2023-03-23T10:15:08;11.40;99.90
38622;DHT22;24380;51.132;5.360;2023-03-23T10:20:25;11.50;99.90
38622;DHT22;24380;51.132;5.360;2023-03-23T10:23:20;11.60;99.90
38622;DHT22;24380;51.132;5.360;2023-03-23T10:28:44;11.70;99.90
38622;DHT22;24380;51.132;5.360;2023-03-23T10:31:15;11.70;99.90
38622;DHT22;24380;51.132;5.360;2023-03-23T10:33:45;11.80;99.90
38622;DHT22;24380;51.132;5.360;2023-03-23T10:36:16;11.90;99.90
38622;DHT22;24380;51.132;5.360;2023-03-23T10:38:49;11.80;99.90
38622;DHT22;24380;51.132;5.360;2023-03-23T10:41:20;11.70;99.90
38622;DHT22;24380;51.132;5.360;2023-03-23T10:43:48;11.90;99.90
38622;DHT22;24380;51.132;5.360;2023-03-23T10:48:50;12.00;99.90
38622;DHT22;24380;51.132;5.360;2023-03-23T10:51:22;12.50;99.90
38622;DHT22;24380;51.132;5.360;2023-03-23T10:53:50;13.00;99.90
38622;DHT22;24380;51.132;5.360;2023-03-23T10:56:40;13.10;99.90
38622;DHT22;24380;51.132;5.360;2023-03-23T10:59:27;13.40;99.90
38622;DHT22;24380;51.132;5.360;2023-03-23T11:01:57;13.30;99.90
38622;DHT22;24380;51.132;5.360;2023-03-23T11:04:25;13.20;99.90
38622;DHT22;24380;51.132;5.360;2023-03-23T11:07:01;12.90;99.90
38622;DHT22;24380;51.132;5.360;2023-03-23T11:09:35;12.80;99.90
38622;DHT22;24380;51.132;5.360;2023-03-23T11:12:04;12.70;99.90
38622;DHT22;24380;51.132;5.360;2023-03-23T11:14:34;12.80;99.90
38622;DHT22;24380;51.132;5.360;2023-03-23T11:17:05;12.70;99.90
38622;DHT22;24380;51.132;5.360;2023-03-23T11:19:35;12.70;99.90
38622;DHT22;24380;51.132;5.360;2023-03-23T11:22:08;12.60;99.90
38622;DHT22;24380;51.132;5.360;2023-03-23T11:24:42;12.50;99.90
38622;DHT22;24380;51.132;5.360;2023-03-23T11:27:11;12.60;99.90
38622;DHT22;24380;51.132;5.360;2023-03-23T11:30:09;12.80;99.90
38622;DHT22;24380;51.132;5.360;2023-03-23T11:32:31;12.90;99.90
38622;DHT22;24380;51.132;5.360;2023-03-23T11:35:00;13.30;99.90
38622;DHT22;24380;51.132;5.360;2023-03-23T11:37:41;13.40;99.90
38622;DHT22;24380;51.132;5.360;2023-03-23T11:40:00;13.40;99.90
38622;DHT22;24380;51.132;5.360;2023-03-23T11:45:37;13.30;99.90
38622;DHT22;24380;51.132;5.360;2023-03-23T11:51:05;13.10;99.90
38622;DHT22;24380;51.132;5.360;2023-03-23T11:53:59;13.10;99.90
38622;DHT22;24380;51.132;5.360;2023-03-23T11:56:38;13.30;99.90
38622;DHT22;24380;51.132;5.360;2023-03-23T11:59:18;13.20;99.90
38622;DHT22;24380;51.132;5.360;2023-03-23T12:10:02;13.70;99.90
38622;DHT22;24380;51.132;5.360;2023-03-23T12:12:37;14.00;99.90
38622;DHT22;24380;51.132;5.360;2023-03-23T12:15:26;14.70;99.90
38622;DHT22;24380;51.132;5.360;2023-03-23T12:18:09;15.00;99.90
38622;DHT22;24380;51.132;5.360;2023-03-23T12:20:52;15.40;99.90
38622;DHT22;24380;51.132;5.360;2023-03-23T12:26:18;16.00;99.90
38622;DHT22;24380;51.132;5.360;2023-03-23T12:29:04;16.00;99.90
38622;DHT22;24380;51.132;5.360;2023-03-23T12:42:47;15.20;99.90
38622;DHT22;24380;51.132;5.360;2023-03-23T12:45:18;15.20;99.90
38622;DHT22;24380;51.132;5.360;2023-03-23T12:47:50;15.20;99.90
38622;DHT22;24380;51.132;5.360;2023-03-23T12:50:59;15.10;99.90
38622;DHT22;24380;51.132;5.360;2023-03-23T12:53:18;15.10;99.90
38622;DHT22;24380;51.132;5.360;2023-03-23T12:55:48;15.20;99.90
38622;DHT22;24380;51.132;5.360;2023-03-23T12:59:03;15.10;99.90
38622;DHT22;24380;51.132;5.360;2023-03-23T13:01:03;14.90;99.90
38622;DHT22;24380;51.132;5.360;2023-03-23T13:03:42;14.70;99.90
38622;DHT22;24380;51.132;5.360;2023-03-23T13:06:23;14.70;99.90
38622;DHT22;24380;51.132;5.360;2023-03-23T13:08:54;14.90;99.90
38622;DHT22;24380;51.132;5.360;2023-03-23T13:11:32;15.30;99.90
38622;DHT22;24380;51.132;5.360;2023-03-23T13:14:12;15.50;99.90
38622;DHT22;24380;51.132;5.360;2023-03-23T13:16:44;15.60;99.90
38622;DHT22;24380;51.132;5.360;2023-03-23T13:22:07;15.30;99.90
38622;DHT22;24380;51.132;5.360;2023-03-23T13:24:38;15.20;99.90
38622;DHT22;24380;51.132;5.360;2023-03-23T13:27:08;15.20;99.90
38622;DHT22;24380;51.132;5.360;2023-03-23T13:29:43;15.20;99.90
38622;DHT22;24380;51.132;5.360;2023-03-23T13:32:12;14.90;99.90
38622;DHT22;24380;51.132;5.360;2023-03-23T13:34:40;14.90;99.90
38622;DHT22;24380;51.132;5.360;2023-03-23T13:40:11;14.60;99.90
38622;DHT22;24380;51.132;5.360;2023-03-23T13:42:29;14.60;99.90
38622;DHT22;24380;51.132;5.360;2023-03-23T13:45:24;14.70;99.90
38622;DHT22;24380;51.132;5.360;2023-03-23T13:48:04;14.80;99.90
38622;DHT22;24380;51.132;5.360;2023-03-23T13:50:43;14.90;99.90
38622;DHT22;24380;51.132;5.360;2023-03-23T13:53:12;14.90;99.90
38622;DHT22;24380;51.132;5.360;2023-03-23T14:00:36;15.00;99.90
38622;DHT22;24380;51.132;5.360;2023-03-23T14:11:01;15.10;99.90
38622;DHT22;24380;51.132;5.360;2023-03-23T14:16:05;15.20;99.90
38622;DHT22;24380;51.132;5.360;2023-03-23T14:18:37;15.00;99.90
38622;DHT22;24380;51.132;5.360;2023-03-23T14:21:11;15.00;99.90
38622;DHT22;24380;51.132;5.360;2023-03-23T14:23:35;15.00;99.90
38622;DHT22;24380;51.132;5.360;2023-03-23T14:26:09;15.20;99.90
38622;DHT22;24380;51.132;5.360;2023-03-23T14:28:40;15.10;99.90
38622;DHT22;24380;51.132;5.360;2023-03-23T14:31:20;15.20;99.90
38622;DHT22;24380;51.132;5.360;2023-03-23T14:33:44;15.30;99.90
38622;DHT22;24380;51.132;5.360;2023-03-23T14:36:11;15.30;99.90
38622;DHT22;24380;51.132;5.360;2023-03-23T14:38:39;15.30;99.90
38622;DHT22;24380;51.132;5.360;2023-03-23T14:41:10;15.30;99.90
38622;DHT22;24380;51.132;5.360;2023-03-23T14:43:36;15.40;99.90
38622;DHT22;24380;51.132;5.360;2023-03-23T14:46:06;15.30;99.90
38622;DHT22;24380;51.132;5.360;2023-03-23T14:48:34;15.20;99.90
38622;DHT22;24380;51.132;5.360;2023-03-23T14:51:04;15.30;99.90
38622;DHT22;24380;51.132;5.360;2023-03-23T14:53:38;15.20;99.90
38622;DHT22;24380;51.132;5.360;2023-03-23T14:56:15;15.20;99.90
38622;DHT22;24380;51.132;5.360;2023-03-23T14:58:47;15.30;99.90
38622;DHT22;24380;51.132;5.360;2023-03-23T15:01:22;15.10;99.90
38622;DHT22;24380;51.132;5.360;2023-03-23T15:03:52;15.10;99.90
38622;DHT22;24380;51.132;5.360;2023-03-23T15:06:22;15.10;99.90
38622;DHT22;24380;51.132;5.360;2023-03-23T15:08:53;14.90;99.90
38622;DHT22;24380;51.132;5.360;2023-03-23T15:11:26;14.70;99.90
38622;DHT22;24380;51.132;5.360;2023-03-23T15:13:54;14.60;99.90
38622;DHT22;24380;51.132;5.360;2023-03-23T15:16:31;14.40;99.90
38622;DHT22;24380;51.132;5.360;2023-03-23T15:19:02;14.30;99.90
38622;DHT22;24380;51.132;5.360;2023-03-23T15:21:33;14.20;99.90
38622;DHT22;24380;51.132;5.360;2023-03-23T15:24:02;14.10;99.90
38622;DHT22;24380;51.132;5.360;2023-03-23T15:26:33;14.20;99.90
38622;DHT22;24380;51.132;5.360;2023-03-23T15:29:15;14.30;99.90
38622;DHT22;24380;51.132;5.360;2023-03-23T15:31:49;14.30;99.90
38622;DHT22;24380;51.132;5.360;2023-03-23T15:34:17;14.40;99.90
38622;DHT22;24380;51.132;5.360;2023-03-23T15:36:44;14.30;99.90
38622;DHT22;24380;51.132;5.360;2023-03-23T15:39:12;14.40;99.90
38622;DHT22;24380;51.132;5.360;2023-03-23T15:41:51;14.40;99.90
38622;DHT22;24380;51.132;5.360;2023-03-23T15:44:24;14.30;99.90
38622;DHT22;24380;51.132;5.360;2023-03-23T15:47:01;14.30;99.90
38622;DHT22;24380;51.132;5.360;2023-03-23T15:49:24;14.20;99.90
38622;DHT22;24380;51.132;5.360;2023-03-23T15:51:52;14.20;99.90
38622;DHT22;24380;51.132;5.360;2023-03-23T15:54:19;14.20;99.90
38622;DHT22;24380;51.132;5.360;2023-03-23T15:56:47;14.20;99.90
38622;DHT22;24380;51.132;5.360;2023-03-23T15:59:14;14.00;99.90
38622;DHT22;24380;51.132;5.360;2023-03-23T16:01:42;14.10;99.90
38622;DHT22;24380;51.132;5.360;2023-03-23T16:04:15;14.20;99.90
38622;DHT22;24380;51.132;5.360;2023-03-23T16:06:44;14.30;99.90
38622;DHT22;24380;51.132;5.360;2023-03-23T16:09:17;14.30;99.90
38622;DHT22;24380;51.132;5.360;2023-03-23T16:11:45;14.40;99.90
38622;DHT22;24380;51.132;5.360;2023-03-23T16:14:13;14.40;99.90
38622;DHT22;24380;51.132;5.360;2023-03-23T16:16:47;14.30;99.90
38622;DHT22;24380;51.132;5.360;2023-03-23T16:19:13;14.30;99.90
38622;DHT22;24380;51.132;5.360;2023-03-23T16:21:41;14.30;99.90
38622;DHT22;24380;51.132;5.360;2023-03-23T16:24:09;14.40;99.90
38622;DHT22;24380;51.132;5.360;2023-03-23T16:26:37;14.40;99.90
38622;DHT22;24380;51.132;5.360;2023-03-23T16:29:15;14.40;99.90
38622;DHT22;24380;51.132;5.360;2023-03-23T16:31:43;14.40;99.90
38622;DHT22;24380;51.132;5.360;2023-03-23T16:34:10;14.40;99.90
38622;DHT22;24380;51.132;5.360;2023-03-23T16:36:38;14.40;99.90
38622;DHT22;24380;51.132;5.360;2023-03-23T16:39:06;14.50;99.90
38622;DHT22;24380;51.132;5.360;2023-03-23T16:41:34;14.50;99.90
38622;DHT22;24380;51.132;5.360;2023-03-23T16:44:01;14.40;99.90
38622;DHT22;24380;51.132;5.360;2023-03-23T16:46:29;14.50;99.90
38622;DHT22;24380;51.132;5.360;2023-03-23T16:48:57;14.60;99.90
38622;DHT22;24380;51.132;5.360;2023-03-23T16:51:25;14.50;99.90
38622;DHT22;24380;51.132;5.360;2023-03-23T16:53:52;14.50;99.90
38622;DHT22;24380;51.132;5.360;2023-03-23T16:56:20;14.50;99.90
38622;DHT22;24380;51.132;5.360;2023-03-23T16:58:47;14.50;99.90
38622;DHT22;24380;51.132;5.360;2023-03-23T17:01:15;14.40;99.90
38622;DHT22;24380;51.132;5.360;2023-03-23T17:03:42;14.40;99.90
38622;DHT22;24380;51.132;5.360;2023-03-23T17:06:10;14.50;99.90
38622;DHT22;24380;51.132;5.360;2023-03-23T17:08:38;14.40;99.90
38622;DHT22;24380;51.132;5.360;2023-03-23T17:11:06;14.40;99.90
38622;DHT22;24380;51.132;5.360;2023-03-23T17:13:34;14.40;99.90
38622;DHT22;24380;51.132;5.360;2023-03-23T17:16:01;14.50;99.90
38622;DHT22;24380;51.132;5.360;2023-03-23T17:18:29;14.40;99.90
38622;DHT22;24380;51.132;5.360;2023-03-23T17:20:56;14.40;99.90
38622;DHT22;24380;51.132;5.360;2023-03-23T17:23:24;14.40;99.90